| Date | Time | Temp. (oF) | Dew Point (oF) | Rel. Hum. (%) | Press. (in.) | Wind Dir. | Wind Speed (mph) | Hourly Rainfall (in.) |
|
|---|---|---|---|---|---|---|---|---|---|
| 1 | 06/10 | 00:00 | 66 | 56 | 72 | 29.75 | S | 0 | 0.00 |
| 2 | 06/09 | 23:00 | 67 | 54 | 64 | 29.75 | N | 0 | 0.00 |
| 3 | 06/09 | 22:00 | 71 | 54 | 57 | 29.73 | N | 0 | 0.00 |
| 4 | 06/09 | 21:00 | 73 | 54 | 53 | 29.70 | NNW | 2 | 0.00 |
| 5 | 06/09 | 20:00 | 76 | 52 | 45 | 29.67 | N | 3 | 0.00 |
| 6 | 06/09 | 19:00 | 79 | 54 | 43 | 29.65 | WNW | 4 | 0.00 |
| 7 | 06/09 | 18:00 | 80 | 55 | 43 | 29.63 | SW | 5 | 0.00 |
| 8 | 06/09 | 17:00 | 81 | 54 | 41 | 29.63 | SSW | 7 | 0.00 |
| 9 | 06/09 | 16:00 | 81 | 58 | 47 | 29.62 | SW | 6 | 0.00 |
| 10 | 06/09 | 15:00 | 79 | 55 | 45 | 29.63 | S | 3 | 0.00 |
| 11 | 06/09 | 14:00 | 80 | 57 | 46 | 29.63 | SW | 6 | 0.00 |
| 12 | 06/09 | 13:00 | 80 | 58 | 48 | 29.63 | S | 15 | 0.00 |
| 13 | 06/09 | 12:00 | 79 | 61 | 55 | 29.63 | SW | 12 | 0.00 |
| 14 | 06/09 | 11:00 | 78 | 62 | 60 | 29.62 | SW | 8 | 0.00 |
| 15 | 06/09 | 10:00 | 75 | 64 | 70 | 29.63 | SSW | 5 | 0.00 |
| 16 | 06/09 | 09:00 | 72 | 66 | 82 | 29.64 | SSE | 3 | 0.00 |
| 17 | 06/09 | 08:00 | 69 | 64 | 85 | 29.64 | S | 2 | 0.00 |
| 18 | 06/09 | 07:00 | 68 | 63 | 86 | 29.64 | S | 5 | 0.00 |
| 19 | 06/09 | 06:00 | 68 | 63 | 85 | 29.64 | SSE | 6 | 0.00 |
| 20 | 06/09 | 05:00 | 68 | 63 | 85 | 29.63 | S | 3 | 0.00 |
| 21 | 06/09 | 04:00 | 68 | 63 | 85 | 29.63 | S | 2 | 0.00 |
| 22 | 06/09 | 03:00 | 68 | 63 | 85 | 29.65 | SSW | 4 | 0.00 |
| 23 | 06/09 | 02:00 | 69 | 64 | 85 | 29.66 | S | 5 | 0.00 |
| 24 | 06/09 | 01:00 | 69 | 64 | 85 | 29.67 | SSW | 3 | 0.01 |